Fernhurst, United Kingdom
Current Conditions -  °F | °C
As of 9:20 PM on Wednesday 22 Oct 2014 (Local Time) from EGLF Reporting Station
Scattered Clouds Scattered Clouds  
Wind Chill: 52°   Ceiling: Unl
Heat Index: 52°   Visibility: 6mi
Dew Point: 46°   Wind: 7mph
Humidity: 82%   Direction: 250°WSW
Pressure: 30.24"   Gusts: NA
Location:  51.05°N, 0.72°W
Report Text: EGLF 222020Z 25006KT 9999 SCT032 11/08 Q1024
Loading
Personal Weather Stations






























Interactive Weather Map
Tropical Storm Tracking
New forecast layout! Learn more

10-Day Weather Forecast

Advertisements
Track Severe Weather on mobile